サンフアン の空港の天気 - METARとTAF

ルイス・ムニョス・マリン国際空港 ( TJSJ / SJU ) - プエルトリコ サンフアン
飛行場実況気象(Metar)
観測時間06/24 05:56 AST (06/24 09:56 UTC)
風向・風速南東 2m/s
視程10km以上
天気現象
全天の4割程度の雲 雲底高度 880m
全天の4割程度の雲 雲底高度 3050m
気温26.7℃
湿度82%
気圧1016.3hPa
METARTJSJ 240956Z 13004KT 10SM SCT029 SCT100 27/23 A3002 RMK AO2 SLP163 T02670233 $
過去の天気等 Google飛行場航空写真 Wunderground天気予報

過去48時間のMETAR

飛行場予報(TAF)
発表時間: 6/24 01:38 AST (6/24 05:38 UTC)
予報対象時間: 24日2時 AST ~ 25日2時 AST
風向・風速南東 3m/s
視程10km以上
天気現象周辺でしゅう雨
少しの雲 雲底高度 910m
全天の4割程度の雲 雲底高度 1220m
24日10時 AST から
風向・風速東 7m/s
視程10km以上
少しの雲 雲底高度 760m
全天の4割程度の雲 雲底高度 1520m
24日14時 AST から
風向・風速東北東 9m/s
視程10km以上
天気現象周辺でしゅう雨
全天の4割程度の雲 雲底高度 610m
全天の4割程度の雲 雲底高度 1220m
24日19時 AST から
風向・風速東 4m/s
視程10km以上
全天の4割程度の雲 雲底高度 910m
全天の4割程度の雲 雲底高度 1830m
TJSJ 240538Z 2406/2506 13005KT P6SM VCSH FEW030 SCT040
FM241400 08013KT P6SM FEW025 SCT050
FM241800 07017KT P6SM VCSH SCT020 SCT040
FM242300 09008KT P6SM SCT030 SCT060